createdAt,value
2023-02-03T00:02:00.436Z,8.10
2023-02-03T00:04:27.079Z,7.00
2023-02-03T00:06:53.815Z,7.53
2023-02-03T00:09:20.994Z,7.37
2023-02-03T00:11:47.882Z,4.93
2023-02-03T00:14:14.730Z,5.33
2023-02-03T00:16:41.619Z,7.47
2023-02-03T00:19:08.249Z,6.70
2023-02-03T00:21:34.915Z,6.70
2023-02-03T00:24:01.614Z,4.97
2023-02-03T00:26:28.711Z,6.27
2023-02-03T00:28:57.665Z,6.03
2023-02-03T00:31:24.743Z,5.83
2023-02-03T00:33:57.199Z,6.23
2023-02-03T00:36:26.947Z,5.13
2023-02-03T00:38:54.247Z,6.07
2023-02-03T00:41:21.482Z,7.03
2023-02-03T00:43:49.267Z,6.87
2023-02-03T00:46:16.308Z,7.23
2023-02-03T00:48:45.465Z,6.50
2023-02-03T00:51:12.971Z,6.77
2023-02-03T00:53:39.614Z,6.70
2023-02-03T00:56:12.423Z,5.70
2023-02-03T00:58:43.343Z,6.93
2023-02-03T01:01:10.459Z,7.23
2023-02-03T01:03:37.956Z,6.77
2023-02-03T01:06:18.828Z,6.67
2023-02-03T01:08:47.485Z,6.17
2023-02-03T01:11:17.222Z,6.80
2023-02-03T01:13:45.163Z,6.07
2023-02-03T01:16:14.734Z,5.83
2023-02-03T01:18:42.862Z,7.43
2023-02-03T01:21:19.112Z,8.20
2023-02-03T01:23:46.256Z,8.00
2023-02-03T01:26:15.246Z,9.03
2023-02-03T01:28:42.488Z,6.33
2023-02-03T01:31:09.389Z,10.93
2023-02-03T01:33:36.612Z,7.30
2023-02-03T01:36:03.311Z,8.10
2023-02-03T01:38:30.421Z,8.43
2023-02-03T01:40:57.060Z,8.00
2023-02-03T01:43:36.077Z,6.73
2023-02-03T01:46:16.517Z,8.57
2023-02-03T01:48:43.528Z,11.47
2023-02-03T01:51:10.242Z,10.27
2023-02-03T01:53:37.685Z,8.27
2023-02-03T01:56:06.213Z,10.97
2023-02-03T01:58:38.109Z,9.67
2023-02-03T02:01:05.345Z,8.47
2023-02-03T02:03:40.398Z,8.37
2023-02-03T02:06:09.834Z,10.20
2023-02-03T02:08:38.604Z,10.10
2023-02-03T02:11:06.912Z,10.90
2023-02-03T02:13:35.056Z,8.63
2023-02-03T02:16:31.765Z,8.40
2023-02-03T02:19:16.640Z,9.37
2023-02-03T02:22:00.498Z,10.47
2023-02-03T02:24:56.505Z,8.33
2023-02-03T02:27:35.425Z,9.67
2023-02-03T02:30:08.251Z,8.13
2023-02-03T02:32:59.891Z,7.80
2023-02-03T02:35:50.073Z,8.37
2023-02-03T02:38:34.960Z,7.97
2023-02-03T02:41:14.205Z,8.70
2023-02-03T02:43:47.796Z,7.83
2023-02-03T02:46:24.099Z,9.33
2023-02-03T02:49:12.878Z,11.57
2023-02-03T02:51:40.844Z,8.10
2023-02-03T02:54:11.771Z,8.40
2023-02-03T02:56:41.468Z,7.53
2023-02-03T02:59:09.345Z,9.57
2023-02-03T03:01:36.131Z,9.57
2023-02-03T03:04:06.266Z,8.30
2023-02-03T03:06:59.945Z,9.03
2023-02-03T03:09:40.704Z,6.80
2023-02-03T03:12:13.695Z,9.77
2023-02-03T03:14:45.423Z,7.83
2023-02-03T03:17:20.084Z,9.10
2023-02-03T03:19:52.291Z,9.00
2023-02-03T03:22:22.860Z,8.07
2023-02-03T03:24:56.118Z,8.63
2023-02-03T03:27:29.430Z,9.43
2023-02-03T03:30:00.681Z,10.27
2023-02-03T03:32:28.100Z,9.63
2023-02-03T03:34:55.442Z,10.83
2023-02-03T03:37:34.521Z,6.53
2023-02-03T03:40:10.209Z,8.37
2023-02-03T03:43:01.332Z,7.27
2023-02-03T03:45:49.358Z,11.20
2023-02-03T03:48:17.888Z,8.90
2023-02-03T03:50:51.470Z,9.80
2023-02-03T03:53:20.363Z,8.50
2023-02-03T03:55:50.495Z,8.30
2023-02-03T03:58:23.234Z,11.37
2023-02-03T04:00:50.912Z,7.70
2023-02-03T04:03:28.258Z,8.10
2023-02-03T04:05:54.951Z,6.50
2023-02-03T04:08:21.614Z,8.90
2023-02-03T04:10:48.273Z,8.23
2023-02-03T04:13:16.123Z,8.00
2023-02-03T04:15:42.810Z,8.73
2023-02-03T04:18:12.180Z,7.87
2023-02-03T04:20:38.885Z,7.13
2023-02-03T04:23:05.768Z,10.47
2023-02-03T04:25:32.442Z,5.63
2023-02-03T04:27:59.101Z,8.13
2023-02-03T04:30:26.124Z,10.43
2023-02-03T04:32:53.539Z,7.43
2023-02-03T04:35:20.568Z,7.90
2023-02-03T04:37:47.268Z,12.03
2023-02-03T04:40:14.490Z,7.43
2023-02-03T04:42:41.872Z,7.27
2023-02-03T04:45:10.211Z,6.83
2023-02-03T04:47:37.256Z,6.97
2023-02-03T04:50:04.231Z,7.00
2023-02-03T04:52:31.235Z,7.97
2023-02-03T04:54:57.905Z,9.10
2023-02-03T04:57:24.539Z,7.30
2023-02-03T04:59:51.191Z,5.90
2023-02-03T05:02:17.862Z,8.83
2023-02-03T05:04:44.539Z,9.03
2023-02-03T05:07:11.546Z,6.73
2023-02-03T05:09:38.204Z,6.30
2023-02-03T05:12:05.121Z,7.63
2023-02-03T05:14:31.796Z,7.97
2023-02-03T05:16:58.553Z,6.67
2023-02-03T05:19:25.222Z,11.03
2023-02-03T05:21:52.016Z,8.00
2023-02-03T05:24:18.666Z,7.17
2023-02-03T05:26:45.363Z,5.70
2023-02-03T05:29:12.052Z,6.07
2023-02-03T05:31:38.772Z,5.70
2023-02-03T05:34:05.439Z,6.43
2023-02-03T05:36:32.150Z,7.83
2023-02-03T05:38:58.958Z,6.30
2023-02-03T05:41:44.382Z,7.47
2023-02-03T05:44:11.225Z,9.73
2023-02-03T05:46:37.844Z,7.33
2023-02-03T05:49:04.628Z,6.07
2023-02-03T05:51:31.244Z,8.87
2023-02-03T05:53:57.962Z,6.50
2023-02-03T05:56:24.603Z,8.77
2023-02-03T05:58:53.859Z,7.87
2023-02-03T06:01:20.567Z,7.37
2023-02-03T06:03:52.939Z,6.03
2023-02-03T06:06:19.804Z,6.00
2023-02-03T06:08:51.075Z,7.13
2023-02-03T06:11:18.025Z,6.77
2023-02-03T06:13:44.646Z,8.30
2023-02-03T06:16:11.320Z,8.37
2023-02-03T06:18:37.936Z,6.47
2023-02-03T06:21:04.760Z,9.50
2023-02-03T06:23:33.762Z,5.67
2023-02-03T06:26:00.539Z,6.23
2023-02-03T06:28:27.194Z,5.20
2023-02-03T06:30:54.074Z,5.97
2023-02-03T06:33:20.900Z,7.83
2023-02-03T06:35:47.763Z,7.20
2023-02-03T06:38:15.575Z,6.97
2023-02-03T06:40:42.181Z,6.03
2023-02-03T06:43:08.851Z,7.80
2023-02-03T06:45:35.679Z,8.57
2023-02-03T06:48:05.465Z,6.40
2023-02-03T06:50:35.921Z,8.97
2023-02-03T06:53:02.671Z,7.90
2023-02-03T06:55:29.445Z,6.07
2023-02-03T06:57:56.175Z,5.00
2023-02-03T07:00:22.937Z,5.90
2023-02-03T07:02:54.228Z,7.13
2023-02-03T07:05:22.011Z,6.13
2023-02-03T07:07:48.764Z,7.57
2023-02-03T07:10:15.655Z,5.43
2023-02-03T07:12:42.691Z,7.03
2023-02-03T07:15:10.077Z,5.50
2023-02-03T07:17:36.995Z,5.03
2023-02-03T07:20:04.661Z,6.53
2023-02-03T07:22:31.341Z,5.90
2023-02-03T07:24:57.936Z,5.80
2023-02-03T07:27:25.337Z,5.10
2023-02-03T07:29:52.011Z,6.83
2023-02-03T07:32:18.635Z,5.40
2023-02-03T07:34:45.235Z,8.93
2023-02-03T07:37:11.820Z,8.07
2023-02-03T07:39:42.309Z,8.13
2023-02-03T07:42:09.005Z,5.80
2023-02-03T07:44:38.850Z,6.13
2023-02-03T07:47:05.786Z,6.23
2023-02-03T07:49:32.687Z,5.00
2023-02-03T07:51:59.594Z,6.60
2023-02-03T07:54:27.026Z,9.63
2023-02-03T07:56:54.530Z,8.43
2023-02-03T07:59:21.949Z,6.37
2023-02-03T08:01:49.046Z,7.93
2023-02-03T08:04:17.274Z,7.80
2023-02-03T08:06:44.051Z,6.60
2023-02-03T08:09:10.718Z,7.70
2023-02-03T08:11:37.321Z,6.70
2023-02-03T08:14:04.054Z,7.23
2023-02-03T08:16:30.880Z,5.70
2023-02-03T08:18:58.316Z,6.13
2023-02-03T08:21:24.972Z,8.00
2023-02-03T08:23:51.610Z,6.80
2023-02-03T08:26:18.238Z,5.63
2023-02-03T08:28:48.831Z,6.13
2023-02-03T08:31:15.953Z,6.60
2023-02-03T08:33:42.655Z,6.47
2023-02-03T08:36:11.239Z,5.53
2023-02-03T08:38:38.983Z,5.47
2023-02-03T08:41:11.041Z,5.23
2023-02-03T08:43:38.298Z,5.40
2023-02-03T08:46:07.112Z,4.87
2023-02-03T08:48:34.865Z,4.23
2023-02-03T08:51:01.669Z,3.30
2023-02-03T08:53:28.519Z,4.20
2023-02-03T08:55:56.259Z,4.10
2023-02-03T08:58:23.042Z,5.10
2023-02-03T09:00:49.979Z,4.20
2023-02-03T09:03:16.769Z,4.53
2023-02-03T09:05:43.477Z,4.00
2023-02-03T09:08:10.198Z,5.00
2023-02-03T09:10:37.198Z,4.93
2023-02-03T09:13:03.860Z,4.97
2023-02-03T09:15:30.464Z,5.00
2023-02-03T09:17:57.784Z,5.23
2023-02-03T09:20:26.367Z,4.23
2023-02-03T09:22:54.920Z,3.43
2023-02-03T09:25:21.690Z,3.60
2023-02-03T09:27:48.437Z,4.33
2023-02-03T09:30:15.256Z,3.90
2023-02-03T09:32:41.902Z,4.77
2023-02-03T09:35:08.555Z,3.80
2023-02-03T09:37:35.196Z,4.43
2023-02-03T09:40:02.528Z,4.40
2023-02-03T09:42:51.090Z,4.00
2023-02-03T09:45:28.350Z,3.37
2023-02-03T09:48:03.629Z,5.53
2023-02-03T09:50:35.095Z,3.07
2023-02-03T09:53:12.269Z,4.67
2023-02-03T09:55:46.221Z,3.13
2023-02-03T09:58:15.671Z,3.43
2023-02-03T10:00:50.312Z,2.67
2023-02-03T10:03:24.425Z,3.17
2023-02-03T10:06:32.473Z,3.93
2023-02-03T10:09:11.331Z,3.43
2023-02-03T10:11:50.253Z,2.90
2023-02-03T10:14:38.373Z,2.40
2023-02-03T10:17:39.273Z,3.10
2023-02-03T10:20:09.008Z,2.40
2023-02-03T10:22:43.404Z,2.57
2023-02-03T10:25:30.604Z,2.73
2023-02-03T10:28:03.107Z,3.33
2023-02-03T10:30:38.301Z,3.60
2023-02-03T10:33:13.534Z,4.57
2023-02-03T10:35:45.714Z,4.13
2023-02-03T10:38:22.042Z,5.07
2023-02-03T10:40:48.784Z,3.60
2023-02-03T10:43:34.162Z,3.67
2023-02-03T10:46:00.884Z,2.50
2023-02-03T10:48:27.726Z,2.90
2023-02-03T10:50:55.891Z,3.07
2023-02-03T10:53:22.616Z,2.80
2023-02-03T10:56:00.211Z,3.17
2023-02-03T10:58:29.162Z,2.53
2023-02-03T11:01:05.016Z,2.73
2023-02-03T11:03:31.974Z,4.03
2023-02-03T11:06:05.101Z,3.00
2023-02-03T11:08:34.862Z,2.27
2023-02-03T11:11:04.745Z,3.23
2023-02-03T11:13:31.544Z,2.23
2023-02-03T11:16:06.160Z,3.00
2023-02-03T11:18:57.899Z,3.03
2023-02-03T11:21:27.741Z,2.97
2023-02-03T11:24:00.380Z,2.77
2023-02-03T11:26:32.775Z,3.87
2023-02-03T11:29:01.203Z,1.80
2023-02-03T11:31:49.086Z,2.93
2023-02-03T11:34:19.128Z,2.30
2023-02-03T11:36:45.778Z,1.97
2023-02-03T11:39:29.969Z,2.40
2023-02-03T11:41:56.866Z,2.90
2023-02-03T11:44:26.129Z,4.87
2023-02-03T11:47:17.926Z,3.63
2023-02-03T11:49:59.475Z,2.27
2023-02-03T11:52:33.743Z,2.47
2023-02-03T11:55:08.438Z,2.37
2023-02-03T11:57:47.010Z,1.50
2023-02-03T12:00:46.952Z,2.53
2023-02-03T12:03:30.715Z,2.60
2023-02-03T12:06:29.578Z,1.57
2023-02-03T12:09:23.941Z,1.40
2023-02-03T12:12:19.623Z,2.30
2023-02-03T12:14:55.249Z,1.40
2023-02-03T12:17:33.926Z,1.77
2023-02-03T12:20:32.051Z,1.70
2023-02-03T12:23:23.711Z,2.00
2023-02-03T12:26:02.674Z,2.23
2023-02-03T12:28:37.310Z,2.00
2023-02-03T12:31:20.823Z,1.40
2023-02-03T12:33:54.434Z,1.90
2023-02-03T12:36:33.753Z,1.63
2023-02-03T12:39:11.409Z,1.40
2023-02-03T12:41:52.021Z,1.33
2023-02-03T12:44:29.397Z,1.37
2023-02-03T12:47:04.948Z,1.97
2023-02-03T12:49:43.779Z,1.60
2023-02-03T12:52:14.563Z,1.70
2023-02-03T12:54:50.671Z,1.83
2023-02-03T12:57:25.325Z,2.10
2023-02-03T13:00:07.248Z,2.50
2023-02-03T13:02:59.214Z,2.30
2023-02-03T13:05:41.009Z,3.03
2023-02-03T13:08:16.813Z,3.17
2023-02-03T13:11:15.426Z,2.10
2023-02-03T13:13:48.630Z,1.80
2023-02-03T13:16:19.915Z,2.50
2023-02-03T13:18:53.822Z,3.50
2023-02-03T13:21:20.569Z,3.53
2023-02-03T13:23:51.483Z,2.27
2023-02-03T13:26:33.401Z,4.80
2023-02-03T13:29:50.568Z,2.60
2023-02-03T13:32:59.242Z,2.20
2023-02-03T13:35:52.631Z,3.77
2023-02-03T13:38:26.583Z,2.30
2023-02-03T13:41:15.961Z,3.03
2023-02-03T13:43:48.696Z,2.30
2023-02-03T13:46:36.157Z,2.17
2023-02-03T13:49:08.763Z,3.17
2023-02-03T13:51:46.053Z,2.97
2023-02-03T13:54:27.545Z,3.00
2023-02-03T13:57:00.011Z,2.53
2023-02-03T13:59:53.096Z,2.00
2023-02-03T14:02:19.724Z,2.20
2023-02-03T14:04:46.353Z,2.93
2023-02-03T14:07:34.032Z,2.90
2023-02-03T14:10:13.122Z,2.93
2023-02-03T14:12:51.860Z,2.20
2023-02-03T14:15:18.487Z,2.87
2023-02-03T14:17:45.196Z,2.73
2023-02-03T14:20:26.742Z,2.20
2023-02-03T14:22:55.413Z,2.60
2023-02-03T14:25:22.423Z,3.93
2023-02-03T14:28:00.705Z,3.23
2023-02-03T14:30:27.585Z,5.10
2023-02-03T14:32:57.895Z,3.57
2023-02-03T14:35:36.552Z,2.37
2023-02-03T14:38:07.299Z,2.83
2023-02-03T14:40:51.826Z,3.30
2023-02-03T14:43:26.920Z,3.63
2023-02-03T14:46:04.801Z,3.90
2023-02-03T14:48:46.736Z,3.50
2023-02-03T14:51:32.055Z,5.40
2023-02-03T14:54:45.653Z,2.83
2023-02-03T14:58:02.787Z,3.87
2023-02-03T15:00:34.129Z,4.47
2023-02-03T15:03:06.875Z,4.33
2023-02-03T15:05:48.365Z,2.80
2023-02-03T15:08:43.138Z,3.43
2023-02-03T15:11:27.792Z,3.57
2023-02-03T15:13:56.875Z,2.40
2023-02-03T15:16:25.114Z,3.20
2023-02-03T15:18:57.963Z,3.10
2023-02-03T15:21:25.591Z,3.83
2023-02-03T15:23:53.540Z,3.77
2023-02-03T15:26:24.188Z,5.77
2023-02-03T15:29:02.563Z,4.07
2023-02-03T15:31:34.237Z,3.67
2023-02-03T15:34:18.831Z,2.77
2023-02-03T15:36:51.865Z,2.80
2023-02-03T15:39:45.972Z,4.13
2023-02-03T15:42:24.398Z,5.77
2023-02-03T15:45:03.197Z,2.77
2023-02-03T15:47:35.370Z,2.30
2023-02-03T15:50:15.570Z,3.20
2023-02-03T15:52:44.354Z,2.97
2023-02-03T15:55:20.789Z,2.40
2023-02-03T15:57:49.885Z,3.33
2023-02-03T16:00:33.310Z,3.00
2023-02-03T16:03:00.783Z,3.30
2023-02-03T16:05:33.812Z,2.60
2023-02-03T16:08:39.716Z,3.80
2023-02-03T16:11:36.656Z,2.80
2023-02-03T16:14:10.648Z,3.40
2023-02-03T16:16:49.397Z,3.60
2023-02-03T16:19:23.392Z,3.40
2023-02-03T16:21:49.976Z,3.03
2023-02-03T16:24:40.940Z,3.33
2023-02-03T16:27:19.997Z,3.83
2023-02-03T16:30:05.584Z,3.57
2023-02-03T16:32:50.813Z,3.20
2023-02-03T16:35:36.122Z,3.57
2023-02-03T16:38:26.465Z,5.53
2023-02-03T16:41:11.712Z,3.33
2023-02-03T16:43:57.073Z,4.20
2023-02-03T16:46:42.424Z,3.57
2023-02-03T16:49:27.581Z,3.03
2023-02-03T16:51:54.264Z,4.77
2023-02-03T16:54:20.934Z,3.17
2023-02-03T16:56:47.662Z,4.10
2023-02-03T16:59:14.471Z,5.53
2023-02-03T17:01:41.280Z,4.07
2023-02-03T17:04:08.250Z,3.33
2023-02-03T17:06:38.171Z,4.40
2023-02-03T17:09:04.900Z,4.50
2023-02-03T17:11:31.594Z,3.70
2023-02-03T17:13:58.436Z,4.10
2023-02-03T17:16:26.978Z,4.63
2023-02-03T17:18:54.929Z,4.60
2023-02-03T17:21:27.777Z,4.20
2023-02-03T17:23:55.278Z,4.73
2023-02-03T17:26:21.905Z,3.90
2023-02-03T17:28:48.621Z,4.80
2023-02-03T17:31:18.833Z,4.27
2023-02-03T17:33:46.275Z,4.40
2023-02-03T17:36:16.062Z,4.20
2023-02-03T17:55:13.239Z,4.07
2023-02-03T17:57:40.088Z,4.73
2023-02-03T18:00:07.830Z,6.70
2023-02-03T18:02:41.411Z,5.37
2023-02-03T18:05:08.128Z,6.77
2023-02-03T18:07:34.972Z,8.17
2023-02-03T18:10:01.635Z,6.33
2023-02-03T18:12:28.298Z,7.77
2023-02-03T18:14:55.403Z,7.57
2023-02-03T18:17:22.615Z,4.30
2023-02-03T18:19:55.805Z,6.37
2023-02-03T18:22:23.746Z,7.53
2023-02-03T18:24:54.800Z,5.20
2023-02-03T18:27:24.056Z,5.50
2023-02-03T18:29:50.701Z,4.07
2023-02-03T18:32:17.386Z,3.47
2023-02-03T18:34:44.107Z,4.60
2023-02-03T18:37:11.433Z,4.40
2023-02-03T18:39:38.136Z,3.97
2023-02-03T18:42:07.032Z,3.70
2023-02-03T18:44:33.959Z,4.60
2023-02-03T18:47:06.802Z,4.70
2023-02-03T18:49:35.915Z,4.50
2023-02-03T18:52:02.894Z,4.30
2023-02-03T18:54:29.756Z,5.40
2023-02-03T18:56:58.912Z,4.60
2023-02-03T18:59:26.169Z,5.10
2023-02-03T19:01:53.080Z,4.83
2023-02-03T19:04:20.041Z,4.77
2023-02-03T19:06:47.542Z,5.50
2023-02-03T19:09:16.982Z,5.67
2023-02-03T19:11:44.390Z,4.60
2023-02-03T19:14:13.448Z,4.63
2023-02-03T19:16:40.212Z,4.77
2023-02-03T19:19:06.855Z,3.90
2023-02-03T19:21:33.539Z,4.70
2023-02-03T19:24:00.320Z,4.87
2023-02-03T19:26:27.815Z,4.20
2023-02-03T19:28:55.896Z,5.97
2023-02-03T19:31:22.855Z,4.60
2023-02-03T19:33:49.838Z,5.27
2023-02-03T19:36:16.616Z,4.67
2023-02-03T19:38:43.484Z,4.20
2023-02-03T19:41:11.600Z,4.70
2023-02-03T19:43:39.905Z,4.97
2023-02-03T19:46:07.325Z,4.43
2023-02-03T19:48:34.212Z,5.10
2023-02-03T19:51:00.935Z,5.07
2023-02-03T19:53:27.667Z,5.97
2023-02-03T19:55:54.527Z,6.00
2023-02-03T19:58:21.369Z,5.67
2023-02-03T20:00:47.994Z,6.97
2023-02-03T20:03:17.158Z,5.40
2023-02-03T20:05:43.932Z,5.27
2023-02-03T20:08:13.007Z,5.70
2023-02-03T20:10:40.604Z,4.93
2023-02-03T20:13:07.454Z,6.73
2023-02-03T20:15:34.134Z,5.80
2023-02-03T20:18:04.405Z,6.20
2023-02-03T20:20:31.342Z,6.43
2023-02-03T20:22:58.360Z,7.63
2023-02-03T20:25:25.094Z,6.53
2023-02-03T20:27:51.820Z,6.77
2023-02-03T20:30:18.463Z,6.03
2023-02-03T20:32:45.203Z,5.87
2023-02-03T20:35:12.662Z,7.80
2023-02-03T20:37:39.532Z,6.03
2023-02-03T20:40:17.219Z,7.03
2023-02-03T20:42:43.978Z,6.63
2023-02-03T20:45:14.249Z,7.13
2023-02-03T20:47:41.498Z,7.33
2023-02-03T20:50:20.552Z,6.13
2023-02-03T20:52:49.167Z,7.03
2023-02-03T20:55:22.404Z,6.47
2023-02-03T20:57:54.957Z,6.80
2023-02-03T21:00:24.806Z,7.27
2023-02-03T21:03:11.194Z,6.60
2023-02-03T21:05:41.983Z,8.67
2023-02-03T21:08:19.862Z,6.10
2023-02-03T21:10:48.037Z,6.83
2023-02-03T21:13:21.994Z,7.33
2023-02-03T21:15:56.116Z,6.90
2023-02-03T21:18:29.292Z,7.60
2023-02-03T21:20:59.151Z,7.53
2023-02-03T21:23:35.804Z,7.93
2023-02-03T21:26:13.902Z,9.17
2023-02-03T21:28:40.588Z,6.63
2023-02-03T21:31:22.256Z,8.10
2023-02-03T21:33:49.062Z,7.67
2023-02-03T21:36:21.650Z,8.87
2023-02-03T21:38:50.570Z,7.10
2023-02-03T21:41:22.057Z,7.37
2023-02-03T21:43:53.784Z,8.77
2023-02-03T21:46:26.830Z,9.17
2023-02-03T21:48:58.024Z,7.67
2023-02-03T21:51:27.962Z,9.00
2023-02-03T21:54:03.475Z,10.93
2023-02-03T21:56:39.932Z,7.97
2023-02-03T21:59:24.290Z,9.80
2023-02-03T22:01:52.969Z,8.77
2023-02-03T22:04:19.801Z,8.50
2023-02-03T22:06:50.865Z,8.90
2023-02-03T22:09:25.495Z,8.47
2023-02-03T22:11:53.046Z,9.23
2023-02-03T22:14:21.088Z,9.30
2023-02-03T22:16:47.975Z,8.03
2023-02-03T22:19:17.362Z,8.17
2023-02-03T22:21:44.756Z,8.27
2023-02-03T22:24:11.538Z,8.50
2023-02-03T22:26:38.634Z,8.63
2023-02-03T22:29:05.632Z,8.87
2023-02-03T22:31:32.703Z,9.30
2023-02-03T22:33:59.524Z,10.37
2023-02-03T22:36:26.183Z,7.27
2023-02-03T22:38:52.955Z,8.60
2023-02-03T22:41:20.934Z,8.20
2023-02-03T22:43:47.716Z,9.53
2023-02-03T22:46:14.460Z,8.87
2023-02-03T22:48:41.173Z,10.23
2023-02-03T22:51:08.132Z,9.13
2023-02-03T22:53:34.969Z,8.17
2023-02-03T22:56:01.815Z,8.83
2023-02-03T22:58:28.490Z,9.17
2023-02-03T23:00:55.218Z,7.70
2023-02-03T23:03:22.063Z,9.00
2023-02-03T23:05:48.775Z,9.73
2023-02-03T23:08:15.630Z,11.37
2023-02-03T23:10:42.319Z,9.80
2023-02-03T23:13:09.076Z,10.23
2023-02-03T23:15:35.775Z,9.40
2023-02-03T23:18:02.466Z,9.17
2023-02-03T23:20:29.555Z,9.20
2023-02-03T23:22:56.530Z,10.83
2023-02-03T23:25:23.249Z,10.77
2023-02-03T23:27:49.997Z,9.23
2023-02-03T23:30:16.708Z,9.83
2023-02-03T23:32:43.357Z,9.97
2023-02-03T23:35:28.663Z,9.63
2023-02-03T23:37:55.282Z,12.30
2023-02-03T23:40:22.119Z,10.40
2023-02-03T23:42:48.962Z,11.00
2023-02-03T23:45:16.212Z,8.97
2023-02-03T23:47:44.540Z,9.90
2023-02-03T23:50:14.442Z,8.87
2023-02-03T23:52:41.199Z,9.93
2023-02-03T23:55:11.650Z,11.83
2023-02-03T23:57:38.365Z,9.40
